sensor_id;sensor_type;location;lat;lon;timestamp;pressure;altitude;pressure_sealevel;temperature;humidity
10840;BME280;5473;42.706;23.328;2022-12-20T00:01:19;-9044.06;;;-142.93;100.00
10840;BME280;5473;42.706;23.328;2022-12-20T00:03:48;-8792.91;;;-142.93;100.00
10840;BME280;5473;42.706;23.328;2022-12-20T00:06:14;-8792.91;;;-142.93;100.00
10840;BME280;5473;42.706;23.328;2022-12-20T00:08:43;-8290.56;;;-142.93;100.00
10840;BME280;5473;42.706;23.328;2022-12-20T00:11:10;-8039.34;;;-142.93;100.00
10840;BME280;5473;42.706;23.328;2022-12-20T00:13:37;-7788.13;;;-142.93;100.00
10840;BME280;5473;42.706;23.328;2022-12-20T00:16:06;-7788.13;;;-142.93;100.00
10840;BME280;5473;42.706;23.328;2022-12-20T00:18:34;-7788.13;;;-142.93;100.00
10840;BME280;5473;42.706;23.328;2022-12-20T00:21:01;-7536.88;;;-142.93;100.00
10840;BME280;5473;42.706;23.328;2022-12-20T00:23:29;-7285.59;;;-142.93;100.00
10840;BME280;5473;42.706;23.328;2022-12-20T00:26:01;-7285.59;;;-142.93;100.00
10840;BME280;5473;42.706;23.328;2022-12-20T00:28:28;-7034.31;;;-142.93;100.00
10840;BME280;5473;42.706;23.328;2022-12-20T00:30:55;-7034.31;;;-142.93;100.00
10840;BME280;5473;42.706;23.328;2022-12-20T00:33:22;-6531.69;;;-142.93;100.00
10840;BME280;5473;42.706;23.328;2022-12-20T00:35:48;-5777.63;;;-142.93;100.00
10840;BME280;5473;42.706;23.328;2022-12-20T00:38:15;-4771.91;;;-142.93;100.00
10840;BME280;5473;42.706;23.328;2022-12-20T00:40:42;-3262.75;;;-142.93;100.00
10840;BME280;5473;42.706;23.328;2022-12-20T00:43:10;-2256.25;;;-142.93;100.00
10840;BME280;5473;42.706;23.328;2022-12-20T00:45:37;-1249.44;;;-142.93;100.00
10840;BME280;5473;42.706;23.328;2022-12-20T00:48:05;-997.69;;;-142.93;100.00
10840;BME280;5473;42.706;23.328;2022-12-20T00:50:31;-745.94;;;-142.93;100.00
10840;BME280;5473;42.706;23.328;2022-12-20T00:52:58;-745.94;;;-142.93;100.00
10840;BME280;5473;42.706;23.328;2022-12-20T00:55:25;-494.16;;;-142.93;100.00
10840;BME280;5473;42.706;23.328;2022-12-20T00:57:52;-494.16;;;-142.93;100.00
10840;BME280;5473;42.706;23.328;2022-12-20T01:00:20;-494.16;;;-142.93;100.00
10840;BME280;5473;42.706;23.328;2022-12-20T01:02:47;9.50;;;-142.93;100.00
10840;BME280;5473;42.706;23.328;2022-12-20T01:05:14;261.34;;;-142.93;100.00
10840;BME280;5473;42.706;23.328;2022-12-20T01:07:41;261.34;;;-142.93;100.00
10840;BME280;5473;42.706;23.328;2022-12-20T01:10:08;513.19;;;-142.93;100.00
10840;BME280;5473;42.706;23.328;2022-12-20T01:12:36;1268.91;;;-142.93;100.00
10840;BME280;5473;42.706;23.328;2022-12-20T01:15:04;1268.91;;;-142.93;100.00
10840;BME280;5473;42.706;23.328;2022-12-20T01:17:33;1520.84;;;-142.93;100.00
10840;BME280;5473;42.706;23.328;2022-12-20T01:20:00;1520.84;;;-142.93;100.00
10840;BME280;5473;42.706;23.328;2022-12-20T01:22:27;1520.84;;;-142.93;100.00
10840;BME280;5473;42.706;23.328;2022-12-20T01:24:53;1268.91;;;-142.93;100.00
10840;BME280;5473;42.706;23.328;2022-12-20T01:27:20;1772.81;;;-142.93;100.00
10840;BME280;5473;42.706;23.328;2022-12-20T01:29:47;1772.81;;;-142.93;100.00
10840;BME280;5473;42.706;23.328;2022-12-20T01:32:14;2024.78;;;-142.93;100.00
10840;BME280;5473;42.706;23.328;2022-12-20T01:34:42;2528.81;;;-142.93;100.00
10840;BME280;5473;42.706;23.328;2022-12-20T01:37:09;2528.81;;;-142.93;100.00
10840;BME280;5473;42.706;23.328;2022-12-20T01:39:36;2528.81;;;-142.93;100.00
10840;BME280;5473;42.706;23.328;2022-12-20T01:42:03;2780.84;;;-142.93;100.00
10840;BME280;5473;42.706;23.328;2022-12-20T01:44:54;2528.81;;;-142.93;100.00
10840;BME280;5473;42.706;23.328;2022-12-20T01:47:21;2528.81;;;-142.93;100.00
10840;BME280;5473;42.706;23.328;2022-12-20T01:49:51;2528.81;;;-142.93;100.00
10840;BME280;5473;42.706;23.328;2022-12-20T01:52:23;2276.78;;;-142.93;100.00
10840;BME280;5473;42.706;23.328;2022-12-20T01:54:55;2528.81;;;-142.93;100.00
10840;BME280;5473;42.706;23.328;2022-12-20T01:57:26;2528.81;;;-142.93;100.00
10840;BME280;5473;42.706;23.328;2022-12-20T01:59:55;2528.81;;;-142.93;100.00
10840;BME280;5473;42.706;23.328;2022-12-20T02:02:23;2024.78;;;-142.93;100.00
10840;BME280;5473;42.706;23.328;2022-12-20T02:04:51;1772.81;;;-142.93;100.00
10840;BME280;5473;42.706;23.328;2022-12-20T02:07:22;2024.78;;;-142.93;100.00
10840;BME280;5473;42.706;23.328;2022-12-20T02:09:51;2024.78;;;-142.93;100.00
10840;BME280;5473;42.706;23.328;2022-12-20T02:12:20;2024.78;;;-142.93;100.00
10840;BME280;5473;42.706;23.328;2022-12-20T02:15:04;1772.81;;;-142.93;100.00
10840;BME280;5473;42.706;23.328;2022-12-20T02:17:44;1520.84;;;-142.93;100.00
10840;BME280;5473;42.706;23.328;2022-12-20T02:20:37;513.19;;;-142.93;100.00
10840;BME280;5473;42.706;23.328;2022-12-20T02:23:29;9.50;;;-142.93;100.00
10840;BME280;5473;42.706;23.328;2022-12-20T02:26:13;-242.34;;;-142.93;100.00
10840;BME280;5473;42.706;23.328;2022-12-20T02:29:05;-494.16;;;-142.93;100.00
10840;BME280;5473;42.706;23.328;2022-12-20T02:31:39;-242.34;;;-142.93;100.00
10840;BME280;5473;42.706;23.328;2022-12-20T02:34:08;-242.34;;;-142.93;100.00
10840;BME280;5473;42.706;23.328;2022-12-20T02:36:36;-242.34;;;-142.93;100.00
10840;BME280;5473;42.706;23.328;2022-12-20T02:39:04;-242.34;;;-142.93;100.00
10840;BME280;5473;42.706;23.328;2022-12-20T02:41:34;-745.94;;;-142.93;100.00
10840;BME280;5473;42.706;23.328;2022-12-20T02:44:07;-1249.44;;;-142.93;100.00
10840;BME280;5473;42.706;23.328;2022-12-20T02:46:54;-1249.44;;;-142.93;100.00
10840;BME280;5473;42.706;23.328;2022-12-20T02:49:28;-1249.44;;;-142.93;100.00
10840;BME280;5473;42.706;23.328;2022-12-20T02:51:56;-1501.19;;;-142.93;100.00
10840;BME280;5473;42.706;23.328;2022-12-20T02:54:25;-1752.88;;;-142.93;100.00
10840;BME280;5473;42.706;23.328;2022-12-20T02:56:55;-1752.88;;;-142.93;100.00
10840;BME280;5473;42.706;23.328;2022-12-20T02:59:26;-1249.44;;;-142.93;100.00
10840;BME280;5473;42.706;23.328;2022-12-20T03:01:57;-494.16;;;-142.93;100.00
10840;BME280;5473;42.706;23.328;2022-12-20T03:04:27;9.50;;;-142.93;100.00
10840;BME280;5473;42.706;23.328;2022-12-20T03:07:00;9.50;;;-142.93;100.00
10840;BME280;5473;42.706;23.328;2022-12-20T03:09:29;9.50;;;-142.93;100.00
10840;BME280;5473;42.706;23.328;2022-12-20T03:11:56;-242.34;;;-142.93;100.00
10840;BME280;5473;42.706;23.328;2022-12-20T03:14:23;-494.16;;;-142.93;100.00
10840;BME280;5473;42.706;23.328;2022-12-20T03:16:50;-242.34;;;-142.93;100.00
10840;BME280;5473;42.706;23.328;2022-12-20T03:19:19;-494.16;;;-142.93;100.00
10840;BME280;5473;42.706;23.328;2022-12-20T03:21:45;-494.16;;;-142.93;100.00
10840;BME280;5473;42.706;23.328;2022-12-20T03:24:13;-494.16;;;-142.93;100.00
10840;BME280;5473;42.706;23.328;2022-12-20T03:26:40;-997.69;;;-142.93;100.00
10840;BME280;5473;42.706;23.328;2022-12-20T03:29:07;-997.69;;;-142.93;100.00
10840;BME280;5473;42.706;23.328;2022-12-20T03:31:35;-997.69;;;-142.93;100.00
10840;BME280;5473;42.706;23.328;2022-12-20T03:34:02;-745.94;;;-142.93;100.00
10840;BME280;5473;42.706;23.328;2022-12-20T03:36:30;-745.94;;;-142.93;100.00
10840;BME280;5473;42.706;23.328;2022-12-20T03:38:57;-494.16;;;-142.93;100.00
10840;BME280;5473;42.706;23.328;2022-12-20T03:41:25;-997.69;;;-142.93;100.00
10840;BME280;5473;42.706;23.328;2022-12-20T03:43:52;-1249.44;;;-142.93;100.00
10840;BME280;5473;42.706;23.328;2022-12-20T03:46:19;-1249.44;;;-142.93;100.00
10840;BME280;5473;42.706;23.328;2022-12-20T03:48:46;-997.69;;;-142.93;100.00
10840;BME280;5473;42.706;23.328;2022-12-20T03:51:12;-997.69;;;-142.93;100.00
10840;BME280;5473;42.706;23.328;2022-12-20T03:53:41;-997.69;;;-142.93;100.00
10840;BME280;5473;42.706;23.328;2022-12-20T03:56:07;-997.69;;;-142.93;100.00
10840;BME280;5473;42.706;23.328;2022-12-20T03:58:34;-745.94;;;-142.93;100.00
10840;BME280;5473;42.706;23.328;2022-12-20T04:01:01;-997.69;;;-142.93;100.00
10840;BME280;5473;42.706;23.328;2022-12-20T04:03:28;-1501.19;;;-142.93;100.00
10840;BME280;5473;42.706;23.328;2022-12-20T04:05:55;-1501.19;;;-142.93;100.00
10840;BME280;5473;42.706;23.328;2022-12-20T04:08:21;-1501.19;;;-142.93;100.00
10840;BME280;5473;42.706;23.328;2022-12-20T04:10:50;-2004.56;;;-142.93;100.00
10840;BME280;5473;42.706;23.328;2022-12-20T04:13:39;-1752.88;;;-142.93;100.00
10840;BME280;5473;42.706;23.328;2022-12-20T04:16:06;-2256.25;;;-142.93;100.00
10840;BME280;5473;42.706;23.328;2022-12-20T04:18:33;-2507.91;;;-142.93;100.00
10840;BME280;5473;42.706;23.328;2022-12-20T04:21:00;-2507.91;;;-142.93;100.00
10840;BME280;5473;42.706;23.328;2022-12-20T04:23:27;-2256.25;;;-142.93;100.00
10840;BME280;5473;42.706;23.328;2022-12-20T04:25:55;-2507.91;;;-142.93;100.00
10840;BME280;5473;42.706;23.328;2022-12-20T04:28:22;-2507.91;;;-142.93;100.00
10840;BME280;5473;42.706;23.328;2022-12-20T04:30:48;-2256.25;;;-142.93;100.00
10840;BME280;5473;42.706;23.328;2022-12-20T04:33:15;-2004.56;;;-142.93;100.00
10840;BME280;5473;42.706;23.328;2022-12-20T04:35:42;-1752.88;;;-142.93;100.00
10840;BME280;5473;42.706;23.328;2022-12-20T04:38:09;-1752.88;;;-142.93;100.00
10840;BME280;5473;42.706;23.328;2022-12-20T04:40:36;-2004.56;;;-142.93;100.00
10840;BME280;5473;42.706;23.328;2022-12-20T04:43:04;-1752.88;;;-142.93;100.00
10840;BME280;5473;42.706;23.328;2022-12-20T04:45:31;-1501.19;;;-142.93;100.00
10840;BME280;5473;42.706;23.328;2022-12-20T04:47:57;-1752.88;;;-142.93;100.00
10840;BME280;5473;42.706;23.328;2022-12-20T04:50:24;-2004.56;;;-142.93;100.00
10840;BME280;5473;42.706;23.328;2022-12-20T04:52:51;-2004.56;;;-142.93;100.00
10840;BME280;5473;42.706;23.328;2022-12-20T04:55:36;-2004.56;;;-142.93;100.00
10840;BME280;5473;42.706;23.328;2022-12-20T04:58:05;-2004.56;;;-142.93;100.00
10840;BME280;5473;42.706;23.328;2022-12-20T05:00:32;-2004.56;;;-142.93;100.00
10840;BME280;5473;42.706;23.328;2022-12-20T05:02:59;-2256.25;;;-142.93;100.00
10840;BME280;5473;42.706;23.328;2022-12-20T05:05:26;-2507.91;;;-142.93;100.00
10840;BME280;5473;42.706;23.328;2022-12-20T05:07:53;-2507.91;;;-142.93;100.00
10840;BME280;5473;42.706;23.328;2022-12-20T05:10:20;-2507.91;;;-142.93;100.00
10840;BME280;5473;42.706;23.328;2022-12-20T05:12:48;-2507.91;;;-142.93;100.00
10840;BME280;5473;42.706;23.328;2022-12-20T05:15:16;-2759.53;;;-142.93;100.00
10840;BME280;5473;42.706;23.328;2022-12-20T05:17:43;-2759.53;;;-142.93;100.00
10840;BME280;5473;42.706;23.328;2022-12-20T05:20:11;-3011.16;;;-142.93;100.00
10840;BME280;5473;42.706;23.328;2022-12-20T05:22:38;-3262.75;;;-142.93;100.00
10840;BME280;5473;42.706;23.328;2022-12-20T05:25:22;-3514.31;;;-142.93;100.00
10840;BME280;5473;42.706;23.328;2022-12-20T05:28:06;-3262.75;;;-142.93;100.00
10840;BME280;5473;42.706;23.328;2022-12-20T05:30:34;-3262.75;;;-142.93;100.00
10840;BME280;5473;42.706;23.328;2022-12-20T05:33:01;-3514.31;;;-142.93;100.00
10840;BME280;5473;42.706;23.328;2022-12-20T05:35:28;-3514.31;;;-142.93;100.00
10840;BME280;5473;42.706;23.328;2022-12-20T05:37:55;-3514.31;;;-142.93;100.00
10840;BME280;5473;42.706;23.328;2022-12-20T05:40:22;-3514.31;;;-142.93;100.00
10840;BME280;5473;42.706;23.328;2022-12-20T05:42:48;-3765.88;;;-142.93;100.00
10840;BME280;5473;42.706;23.328;2022-12-20T05:45:15;-4017.41;;;-142.93;100.00
10840;BME280;5473;42.706;23.328;2022-12-20T05:47:43;-4268.91;;;-142.93;100.00
10840;BME280;5473;42.706;23.328;2022-12-20T05:50:10;-4771.91;;;-142.93;100.00
10840;BME280;5473;42.706;23.328;2022-12-20T05:52:37;-5023.34;;;-142.93;100.00
10840;BME280;5473;42.706;23.328;2022-12-20T05:55:04;-5023.34;;;-142.93;100.00
10840;BME280;5473;42.706;23.328;2022-12-20T05:57:31;-5274.78;;;-142.93;100.00
10840;BME280;5473;42.706;23.328;2022-12-20T05:59:58;-5526.22;;;-142.93;100.00
10840;BME280;5473;42.706;23.328;2022-12-20T06:02:25;-5526.22;;;-142.93;100.00
10840;BME280;5473;42.706;23.328;2022-12-20T06:04:53;-5526.22;;;-142.93;100.00
10840;BME280;5473;42.706;23.328;2022-12-20T06:07:20;-5777.63;;;-142.93;100.00
10840;BME280;5473;42.706;23.328;2022-12-20T06:09:46;-5777.63;;;-142.93;100.00
10840;BME280;5473;42.706;23.328;2022-12-20T06:12:13;-5526.22;;;-142.93;100.00
10840;BME280;5473;42.706;23.328;2022-12-20T06:14:40;-5274.78;;;-142.93;100.00
10840;BME280;5473;42.706;23.328;2022-12-20T06:17:07;-5274.78;;;-142.93;100.00
10840;BME280;5473;42.706;23.328;2022-12-20T06:19:33;-5274.78;;;-142.93;100.00
10840;BME280;5473;42.706;23.328;2022-12-20T06:22:02;-5023.34;;;-142.93;100.00
10840;BME280;5473;42.706;23.328;2022-12-20T06:24:28;-5023.34;;;-142.93;100.00
10840;BME280;5473;42.706;23.328;2022-12-20T06:26:55;-5023.34;;;-142.93;100.00
10840;BME280;5473;42.706;23.328;2022-12-20T06:29:22;-5023.34;;;-142.93;100.00
10840;BME280;5473;42.706;23.328;2022-12-20T06:31:49;-4520.41;;;-142.93;100.00
10840;BME280;5473;42.706;23.328;2022-12-20T06:34:16;-4520.41;;;-142.93;100.00
10840;BME280;5473;42.706;23.328;2022-12-20T06:36:43;-4520.41;;;-142.93;100.00
10840;BME280;5473;42.706;23.328;2022-12-20T06:39:11;-4268.91;;;-142.93;100.00
10840;BME280;5473;42.706;23.328;2022-12-20T06:41:38;-3765.88;;;-142.93;100.00
10840;BME280;5473;42.706;23.328;2022-12-20T06:44:05;-3514.31;;;-142.93;100.00
10840;BME280;5473;42.706;23.328;2022-12-20T06:46:33;-2759.53;;;-142.93;100.00
10840;BME280;5473;42.706;23.328;2022-12-20T06:49:00;-2507.91;;;-142.93;100.00
10840;BME280;5473;42.706;23.328;2022-12-20T06:51:26;-2004.56;;;-142.93;100.00
10840;BME280;5473;42.706;23.328;2022-12-20T06:53:53;-2004.56;;;-142.93;100.00
10840;BME280;5473;42.706;23.328;2022-12-20T06:56:21;-1501.19;;;-142.93;100.00
10840;BME280;5473;42.706;23.328;2022-12-20T06:58:48;-494.16;;;-142.93;100.00
10840;BME280;5473;42.706;23.328;2022-12-20T07:01:15;513.19;;;-142.93;100.00
10840;BME280;5473;42.706;23.328;2022-12-20T07:03:42;261.34;;;-142.93;100.00
10840;BME280;5473;42.706;23.328;2022-12-20T07:06:09;765.09;;;-142.93;100.00
10840;BME280;5473;42.706;23.328;2022-12-20T07:08:35;765.09;;;-142.93;100.00
10840;BME280;5473;42.706;23.328;2022-12-20T07:11:03;1016.97;;;-142.93;100.00
10840;BME280;5473;42.706;23.328;2022-12-20T07:13:32;1520.84;;;-142.93;100.00
10840;BME280;5473;42.706;23.328;2022-12-20T07:16:00;4293.50;;;-142.93;100.00
10840;BME280;5473;42.706;23.328;2022-12-20T07:18:27;7825.69;;;-142.93;100.00
10840;BME280;5473;42.706;23.328;2022-12-20T07:20:58;11867.13;;;-142.93;100.00
10840;BME280;5473;42.706;23.328;2022-12-20T07:23:25;16925.88;;;-142.93;100.00
10840;BME280;5473;42.706;23.328;2022-12-20T07:25:53;20978.44;;;-142.93;100.00
10840;BME280;5473;42.706;23.328;2022-12-20T07:28:20;28507.03;;;-142.93;100.00
10840;BME280;5473;42.706;23.328;2022-12-20T07:30:49;34451.88;;;-142.93;100.00
10840;BME280;5473;42.706;23.328;2022-12-20T07:33:16;35708.56;;;-142.93;100.00
10840;BME280;5473;42.706;23.328;2022-12-20T07:35:43;35992.97;;;-142.93;100.00
10840;BME280;5473;42.706;23.328;2022-12-20T07:38:11;36492.22;;;-142.93;100.00
10840;BME280;5473;42.706;23.328;2022-12-20T07:40:39;36840.34;;;-142.93;100.00
10840;BME280;5473;42.706;23.328;2022-12-20T07:43:06;36979.63;;;-142.93;100.00
10840;BME280;5473;42.706;23.328;2022-12-20T07:45:33;37156.69;;;-142.93;100.00
10840;BME280;5473;42.706;23.328;2022-12-20T07:48:01;37409.38;;;-142.93;100.00
10840;BME280;5473;42.706;23.328;2022-12-20T07:50:28;37413.38;;;-142.93;100.00
10840;BME280;5473;42.706;23.328;2022-12-20T07:52:56;37496.94;;;-142.93;100.00
10840;BME280;5473;42.706;23.328;2022-12-20T07:55:24;37600.41;;;-142.93;100.00
10840;BME280;5473;42.706;23.328;2022-12-20T07:57:53;37576.53;;;-142.93;100.00
10840;BME280;5473;42.706;23.328;2022-12-20T08:00:21;37638.22;;;-142.93;100.00
10840;BME280;5473;42.706;23.328;2022-12-20T08:02:54;37596.44;;;-142.93;100.00
10840;BME280;5473;42.706;23.328;2022-12-20T08:05:23;37614.34;;;-142.93;100.00
10840;BME280;5473;42.706;23.328;2022-12-20T08:07:52;37705.88;;;-142.93;100.00
10840;BME280;5473;42.706;23.328;2022-12-20T08:10:20;37741.69;;;-142.93;100.00
10840;BME280;5473;42.706;23.328;2022-12-20T08:12:47;37705.88;;;-142.93;100.00
10840;BME280;5473;42.706;23.328;2022-12-20T08:15:15;37733.75;;;-142.93;100.00
10840;BME280;5473;42.706;23.328;2022-12-20T08:17:43;37735.72;;;-142.93;100.00
10840;BME280;5473;42.706;23.328;2022-12-20T08:20:11;37654.13;;;-142.93;100.00
10840;BME280;5473;42.706;23.328;2022-12-20T08:22:40;37731.75;;;-142.93;100.00
10840;BME280;5473;42.706;23.328;2022-12-20T08:25:07;37662.09;;;-142.93;100.00
10840;BME280;5473;42.706;23.328;2022-12-20T08:27:36;37695.94;;;-142.93;100.00
10840;BME280;5473;42.706;23.328;2022-12-20T08:30:03;37666.06;;;-142.93;100.00
10840;BME280;5473;42.706;23.328;2022-12-20T08:32:31;37652.16;;;-142.93;100.00
10840;BME280;5473;42.706;23.328;2022-12-20T08:34:58;37672.03;;;-142.93;100.00
10840;BME280;5473;42.706;23.328;2022-12-20T08:37:25;37510.88;;;-142.93;100.00
10840;BME280;5473;42.706;23.328;2022-12-20T08:39:53;37650.16;;;-142.93;100.00
10840;BME280;5473;42.706;23.328;2022-12-20T08:42:20;37640.22;;;-142.93;100.00
10840;BME280;5473;42.706;23.328;2022-12-20T08:44:47;37691.94;;;-142.93;96.59
10840;BME280;5473;42.706;23.328;2022-12-20T08:47:14;37777.50;;;-142.93;93.79
10840;BME280;5473;42.706;23.328;2022-12-20T08:49:41;37759.59;;;-142.93;95.39
10840;BME280;5473;42.706;23.328;2022-12-20T08:52:07;37721.78;;;-142.93;94.70
10840;BME280;5473;42.706;23.328;2022-12-20T08:54:34;37749.66;;;-142.93;94.54
10840;BME280;5473;42.706;23.328;2022-12-20T08:57:02;37709.84;;;-142.93;92.94
10840;BME280;5473;42.706;23.328;2022-12-20T08:59:29;37737.72;;;-142.93;91.73
10840;BME280;5473;42.706;23.328;2022-12-20T09:01:56;37763.59;;;-142.93;92.00
10840;BME280;5473;42.706;23.328;2022-12-20T09:04:23;37783.50;;;-142.93;90.86
10840;BME280;5473;42.706;23.328;2022-12-20T09:06:49;37783.50;;;-142.93;89.03
10840;BME280;5473;42.706;23.328;2022-12-20T09:09:16;37777.50;;;-142.93;84.63
10840;BME280;5473;42.706;23.328;2022-12-20T09:11:43;37789.47;;;-142.93;83.51
10840;BME280;5473;42.706;23.328;2022-12-20T09:14:11;37829.25;;;-142.93;82.70
10840;BME280;5473;42.706;23.328;2022-12-20T09:16:38;37777.50;;;-142.93;82.29
10840;BME280;5473;42.706;23.328;2022-12-20T09:19:05;37813.34;;;-142.93;81.96
10840;BME280;5473;42.706;23.328;2022-12-20T09:21:32;37763.59;;;-142.93;80.59
10840;BME280;5473;42.706;23.328;2022-12-20T09:23:59;37825.28;;;-142.93;77.96
10840;BME280;5473;42.706;23.328;2022-12-20T09:26:25;37877.00;;;-142.93;80.39
10840;BME280;5473;42.706;23.328;2022-12-20T09:28:52;37843.19;;;-142.93;78.06
10840;BME280;5473;42.706;23.328;2022-12-20T09:31:22;37900.91;;;-142.93;75.04
10840;BME280;5473;42.706;23.328;2022-12-20T09:33:52;37900.91;;;-142.93;74.61
10840;BME280;5473;42.706;23.328;2022-12-20T09:36:20;37920.81;;;-142.93;77.18
10840;BME280;5473;42.706;23.328;2022-12-20T09:38:47;37865.06;;;-142.93;77.05
10840;BME280;5473;42.706;23.328;2022-12-20T09:41:24;37928.75;;;-142.93;73.40
10840;BME280;5473;42.706;23.328;2022-12-20T09:43:52;37886.97;;;-142.93;73.04
10840;BME280;5473;42.706;23.328;2022-12-20T09:46:21;37914.81;;;-142.93;71.58
10840;BME280;5473;42.706;23.328;2022-12-20T09:48:49;37920.81;;;-142.93;70.96
10840;BME280;5473;42.706;23.328;2022-12-20T09:51:34;37950.66;;;-142.93;71.53
10840;BME280;5473;42.706;23.328;2022-12-20T09:54:10;37938.72;;;-142.93;72.33
10840;BME280;5473;42.706;23.328;2022-12-20T09:56:43;37976.53;;;-142.93;71.73
10840;BME280;5473;42.706;23.328;2022-12-20T09:59:14;37976.53;;;-142.93;71.24
10840;BME280;5473;42.706;23.328;2022-12-20T10:01:44;37968.56;;;-142.93;73.76
10840;BME280;5473;42.706;23.328;2022-12-20T10:04:19;37946.66;;;-142.93;73.57
10840;BME280;5473;42.706;23.328;2022-12-20T10:06:59;37984.47;;;-142.93;69.35
10840;BME280;5473;42.706;23.328;2022-12-20T10:09:50;37976.53;;;-142.93;70.18
10840;BME280;5473;42.706;23.328;2022-12-20T10:12:28;37982.50;;;-142.93;70.12
10840;BME280;5473;42.706;23.328;2022-12-20T10:15:14;37884.97;;;-142.93;70.69
10840;BME280;5473;42.706;23.328;2022-12-20T10:17:56;38034.22;;;-142.93;65.79
10840;BME280;5473;42.706;23.328;2022-12-20T10:20:36;37990.44;;;-142.93;65.04
10840;BME280;5473;42.706;23.328;2022-12-20T10:23:10;37980.50;;;-142.93;67.96
10840;BME280;5473;42.706;23.328;2022-12-20T10:25:41;37936.72;;;-142.93;66.98
10840;BME280;5473;42.706;23.328;2022-12-20T10:28:12;38034.22;;;-142.93;66.20
10840;BME280;5473;42.706;23.328;2022-12-20T10:30:40;38030.25;;;-142.93;70.23
10840;BME280;5473;42.706;23.328;2022-12-20T10:33:15;38020.31;;;-142.93;74.32
10840;BME280;5473;42.706;23.328;2022-12-20T10:35:43;38010.34;;;-142.93;76.14
10840;BME280;5473;42.706;23.328;2022-12-20T10:38:12;38024.28;;;-142.93;76.21
10840;BME280;5473;42.706;23.328;2022-12-20T10:40:44;38026.28;;;-142.93;77.18
10840;BME280;5473;42.706;23.328;2022-12-20T10:43:15;38044.19;;;-142.93;77.40
10840;BME280;5473;42.706;23.328;2022-12-20T10:45:45;37996.41;;;-142.93;77.17
10840;BME280;5473;42.706;23.328;2022-12-20T10:48:29;38002.41;;;-142.93;74.77
10840;BME280;5473;42.706;23.328;2022-12-20T10:50:57;38016.31;;;-142.93;73.36
10840;BME280;5473;42.706;23.328;2022-12-20T10:53:26;38032.25;;;-142.93;73.53
10840;BME280;5473;42.706;23.328;2022-12-20T10:56:03;37992.44;;;-142.93;75.21
10840;BME280;5473;42.706;23.328;2022-12-20T10:58:35;37986.47;;;-142.93;74.98
10840;BME280;5473;42.706;23.328;2022-12-20T11:01:05;38010.34;;;-142.93;75.49
10840;BME280;5473;42.706;23.328;2022-12-20T11:03:49;37998.41;;;-142.93;73.77
10840;BME280;5473;42.706;23.328;2022-12-20T11:06:17;37984.47;;;-142.93;74.18
10840;BME280;5473;42.706;23.328;2022-12-20T11:08:45;37998.41;;;-142.93;72.22
10840;BME280;5473;42.706;23.328;2022-12-20T11:11:15;38032.25;;;-142.93;70.66
10840;BME280;5473;42.706;23.328;2022-12-20T11:13:44;38054.13;;;-142.93;73.17
10840;BME280;5473;42.706;23.328;2022-12-20T11:16:34;38024.28;;;-142.93;73.33
10840;BME280;5473;42.706;23.328;2022-12-20T11:19:20;38004.38;;;-142.93;73.50
10840;BME280;5473;42.706;23.328;2022-12-20T11:21:58;37992.44;;;-142.93;72.62
10840;BME280;5473;42.706;23.328;2022-12-20T11:24:32;38028.25;;;-142.93;72.15
10840;BME280;5473;42.706;23.328;2022-12-20T11:27:12;38004.38;;;-142.93;70.97
10840;BME280;5473;42.706;23.328;2022-12-20T11:30:03;38022.28;;;-142.93;68.95
10840;BME280;5473;42.706;23.328;2022-12-20T11:35:40;37990.44;;;-142.93;67.51
10840;BME280;5473;42.706;23.328;2022-12-20T11:38:13;38038.22;;;-142.93;68.13
10840;BME280;5473;42.706;23.328;2022-12-20T11:40:48;38056.13;;;-142.93;71.49
10840;BME280;5473;42.706;23.328;2022-12-20T11:43:30;38014.34;;;-142.93;68.82
10840;BME280;5473;42.706;23.328;2022-12-20T11:46:14;38072.03;;;-142.93;67.95
10840;BME280;5473;42.706;23.328;2022-12-20T11:49:09;38050.16;;;-142.93;67.58
10840;BME280;5473;42.706;23.328;2022-12-20T11:51:46;38036.22;;;-142.93;67.30
10840;BME280;5473;42.706;23.328;2022-12-20T11:54:19;38125.78;;;-142.93;68.73
10840;BME280;5473;42.706;23.328;2022-12-20T11:56:50;38062.09;;;-142.93;68.89
10840;BME280;5473;42.706;23.328;2022-12-20T11:59:25;38089.97;;;-142.93;67.59
10840;BME280;5473;42.706;23.328;2022-12-20T12:02:01;38091.94;;;-142.93;67.11
10840;BME280;5473;42.706;23.328;2022-12-20T12:04:34;38068.06;;;-142.93;68.80
10840;BME280;5473;42.706;23.328;2022-12-20T12:07:09;38078.03;;;-142.93;68.92
10840;BME280;5473;42.706;23.328;2022-12-20T12:09:41;38085.97;;;-142.93;68.46
10840;BME280;5473;42.706;23.328;2022-12-20T12:12:15;38129.75;;;-142.93;68.33
10840;BME280;5473;42.706;23.328;2022-12-20T12:14:50;38078.03;;;-142.93;70.15
10840;BME280;5473;42.706;23.328;2022-12-20T12:17:24;38095.94;;;-142.93;70.79
10840;BME280;5473;42.706;23.328;2022-12-20T12:19:55;38095.94;;;-142.93;72.66
10840;BME280;5473;42.706;23.328;2022-12-20T12:22:31;38089.97;;;-142.93;71.73
10840;BME280;5473;42.706;23.328;2022-12-20T12:25:03;38078.03;;;-142.93;73.38
10840;BME280;5473;42.706;23.328;2022-12-20T12:27:35;38123.78;;;-142.93;71.34
10840;BME280;5473;42.706;23.328;2022-12-20T12:30:03;38082.00;;;-142.93;73.09
10840;BME280;5473;42.706;23.328;2022-12-20T12:32:32;38093.94;;;-142.93;71.93
10840;BME280;5473;42.706;23.328;2022-12-20T12:35:12;38085.97;;;-142.93;71.89
10840;BME280;5473;42.706;23.328;2022-12-20T12:38:00;38137.72;;;-142.93;71.54
10840;BME280;5473;42.706;23.328;2022-12-20T12:43:49;38070.06;;;-142.93;74.92
10840;BME280;5473;42.706;23.328;2022-12-20T12:46:21;38062.09;;;-142.93;74.67
10840;BME280;5473;42.706;23.328;2022-12-20T12:48:55;38032.25;;;-142.93;75.03
10840;BME280;5473;42.706;23.328;2022-12-20T12:51:28;38125.78;;;-142.93;74.06
10840;BME280;5473;42.706;23.328;2022-12-20T12:54:11;38062.09;;;-142.93;74.68
10840;BME280;5473;42.706;23.328;2022-12-20T12:56:40;38193.44;;;-142.93;73.77